createdAt,value
2023-08-11T00:02:09.402Z,98342.78
2023-08-11T00:04:39.127Z,98347.78
2023-08-11T00:07:07.012Z,98354.91
2023-08-11T00:09:33.919Z,98346.09
2023-08-11T00:12:01.214Z,98338.47
2023-08-11T00:14:28.254Z,98335.50
2023-08-11T00:16:54.961Z,98332.84
2023-08-11T00:19:21.712Z,98338.66
2023-08-11T00:21:48.305Z,98328.56
2023-08-11T00:24:14.985Z,98339.81
2023-08-11T00:26:41.588Z,98334.53
2023-08-11T00:29:08.193Z,98330.19
2023-08-11T00:31:36.883Z,98328.88
2023-08-11T00:34:04.395Z,98329.88
2023-08-11T00:36:31.253Z,98328.22
2023-08-11T00:39:01.587Z,98318.28
2023-08-11T00:41:29.063Z,98305.53
2023-08-11T00:43:55.915Z,98311.63
2023-08-11T00:46:25.814Z,98282.09
2023-08-11T00:48:52.780Z,98306.84
2023-08-11T00:51:22.121Z,98293.06
2023-08-11T00:53:50.820Z,98300.19
2023-08-11T00:56:20.806Z,98293.38
2023-08-11T00:58:48.899Z,98285.44
2023-08-11T01:01:15.738Z,98279.13
2023-08-11T01:03:46.694Z,98276.31
2023-08-11T01:06:33.977Z,98285.59
2023-08-11T01:09:36.491Z,98279.13
2023-08-11T01:12:18.070Z,98277.81
2023-08-11T01:15:22.609Z,98275.50
2023-08-11T01:17:52.093Z,98284.91
2023-08-11T01:20:19.735Z,98270.00
2023-08-11T01:22:49.305Z,98269.84
2023-08-11T01:25:16.668Z,98263.88
2023-08-11T01:27:48.410Z,98272.16
2023-08-11T01:30:16.131Z,98273.97
2023-08-11T01:32:43.163Z,98248.97
2023-08-11T01:35:10.947Z,98242.16
2023-08-11T01:37:38.262Z,98269.63
2023-08-11T01:40:11.964Z,98262.19
2023-08-11T01:42:46.714Z,98263.84
2023-08-11T01:45:22.118Z,98253.91
2023-08-11T01:47:49.970Z,98254.88
2023-08-11T01:50:19.382Z,98248.09
2023-08-11T01:52:48.872Z,98245.28
2023-08-11T01:55:18.032Z,98229.72
2023-08-11T01:57:56.470Z,98245.63
2023-08-11T02:00:25.709Z,98236.84
2023-08-11T02:02:52.374Z,98235.53
2023-08-11T02:05:20.000Z,98238.81
2023-08-11T02:07:47.164Z,98239.78
2023-08-11T02:10:14.023Z,98242.91
2023-08-11T02:12:41.891Z,98239.75
2023-08-11T02:15:09.917Z,98229.19
2023-08-11T02:17:36.711Z,98226.69
2023-08-11T02:20:18.141Z,98217.78
2023-08-11T02:22:45.259Z,98213.81
2023-08-11T02:25:12.103Z,98208.19
2023-08-11T02:27:38.847Z,98217.13
2023-08-11T02:30:07.263Z,98217.13
2023-08-11T02:32:34.052Z,98207.38
2023-08-11T02:35:01.499Z,98202.06
2023-08-11T02:37:31.586Z,98195.59
2023-08-11T02:39:58.330Z,98211.16
2023-08-11T02:42:25.471Z,98203.53
2023-08-11T02:44:52.779Z,98191.97
2023-08-11T02:47:19.450Z,98186.16
2023-08-11T02:49:46.084Z,98187.34
2023-08-11T02:52:14.099Z,98194.94
2023-08-11T02:54:40.855Z,98187.84
2023-08-11T02:57:07.522Z,98186.34
2023-08-11T02:59:34.415Z,98196.72
2023-08-11T03:02:02.580Z,98170.75
2023-08-11T03:04:29.827Z,98181.88
2023-08-11T03:06:56.461Z,98184.66
2023-08-11T03:09:23.323Z,98179.69
2023-08-11T03:11:50.153Z,98185.31
2023-08-11T03:14:16.775Z,98189.59
2023-08-11T03:16:44.724Z,98197.19
2023-08-11T03:19:11.405Z,98183.28
2023-08-11T03:21:37.959Z,98185.28
2023-08-11T03:24:05.672Z,98171.25
2023-08-11T03:26:32.294Z,98159.16
2023-08-11T03:28:58.875Z,98169.44
2023-08-11T03:31:25.575Z,98156.34
2023-08-11T03:33:52.304Z,98175.66
2023-08-11T03:36:19.135Z,98175.97
2023-08-11T03:38:46.017Z,98167.06
2023-08-11T03:41:13.252Z,98166.56
2023-08-11T03:43:39.967Z,98163.25
2023-08-11T03:46:07.075Z,98146.03
2023-08-11T03:48:33.711Z,98149.84
2023-08-11T03:51:01.578Z,98144.72
2023-08-11T03:53:28.964Z,98155.09
2023-08-11T03:55:55.881Z,98144.19
2023-08-11T03:58:22.969Z,98153.78
2023-08-11T04:00:49.765Z,98152.47
2023-08-11T04:03:16.711Z,98150.63
2023-08-11T04:05:43.941Z,98151.78
2023-08-11T04:08:10.662Z,98142.34
2023-08-11T04:10:37.317Z,98135.22
2023-08-11T04:13:04.771Z,98102.47
2023-08-11T04:15:34.858Z,98116.22
2023-08-11T04:18:01.545Z,98123.81
2023-08-11T04:20:30.116Z,98112.41
2023-08-11T04:22:57.426Z,98123.19
2023-08-11T04:25:25.304Z,98114.22
2023-08-11T04:27:52.278Z,98109.47
2023-08-11T04:30:19.244Z,98102.19
2023-08-11T04:32:46.165Z,98111.81
2023-08-11T04:35:13.041Z,98104.53
2023-08-11T04:37:40.548Z,98108.88
2023-08-11T04:40:10.816Z,98102.91
2023-08-11T04:42:46.527Z,98109.50
2023-08-11T04:45:16.443Z,98105.53
2023-08-11T04:47:43.688Z,98112.81
2023-08-11T04:50:11.102Z,98130.00
2023-08-11T04:52:38.561Z,98136.28
2023-08-11T04:55:06.700Z,98134.31
2023-08-11T04:57:33.564Z,98120.13
2023-08-11T05:00:00.390Z,98132.03
2023-08-11T05:02:27.776Z,98131.41
2023-08-11T05:04:54.376Z,98146.97
2023-08-11T05:07:22.101Z,98148.25
2023-08-11T05:09:49.033Z,98150.78
2023-08-11T05:12:17.425Z,98148.31
2023-08-11T05:14:44.211Z,98156.25
2023-08-11T05:17:11.757Z,98162.06
2023-08-11T05:19:38.796Z,98154.63
2023-08-11T05:22:05.667Z,98171.69
2023-08-11T05:24:32.278Z,98176.63
2023-08-11T05:26:59.492Z,98187.72
2023-08-11T05:29:26.223Z,98193.03
2023-08-11T05:31:53.089Z,98204.59
2023-08-11T05:34:19.885Z,98207.94
2023-08-11T05:36:46.927Z,98233.13
2023-08-11T05:39:14.000Z,98231.47
2023-08-11T05:41:41.542Z,98242.69
2023-08-11T05:44:09.286Z,98258.25
2023-08-11T05:46:36.057Z,98279.97
2023-08-11T05:49:02.705Z,98297.16
2023-08-11T05:51:29.458Z,98324.84
2023-08-11T05:53:56.161Z,98344.66
2023-08-11T05:56:22.851Z,98370.22
2023-08-11T05:58:49.552Z,98383.50
2023-08-11T06:01:16.274Z,98389.38
2023-08-11T06:03:43.290Z,98420.78
2023-08-11T06:06:09.980Z,98447.56
2023-08-11T06:08:36.770Z,98477.47
2023-08-11T06:11:03.412Z,98648.66
2023-08-11T06:13:29.997Z,98728.47
2023-08-11T06:15:56.685Z,98810.88
2023-08-11T06:18:23.569Z,98838.41
2023-08-11T06:20:50.701Z,98876.97
2023-08-11T06:23:18.281Z,98914.47
2023-08-11T06:25:44.976Z,98876.78
2023-08-11T06:28:11.712Z,98884.88
2023-08-11T06:30:38.918Z,98878.75
2023-08-11T06:33:06.179Z,98921.22
2023-08-11T06:35:33.844Z,98962.69
2023-08-11T06:38:01.110Z,98996.56
2023-08-11T06:40:27.914Z,98960.56
2023-08-11T06:42:54.871Z,99029.78
2023-08-11T06:45:21.497Z,99022.19
2023-08-11T06:47:48.332Z,99085.28
2023-08-11T06:50:15.100Z,99045.72
2023-08-11T06:52:42.210Z,99045.94
2023-08-11T06:55:09.359Z,99093.75
2023-08-11T06:57:37.965Z,99116.75
2023-08-11T07:00:08.660Z,99165.94
2023-08-11T07:02:36.190Z,99144.50
2023-08-11T07:05:04.006Z,99165.00
2023-08-11T07:07:30.870Z,99195.88
2023-08-11T07:09:58.008Z,99207.44
2023-08-11T07:12:25.789Z,99197.97
2023-08-11T07:14:53.078Z,99216.09
2023-08-11T07:17:19.691Z,99442.66
2023-08-11T07:19:46.448Z,99576.44
2023-08-11T07:22:13.123Z,99577.84
2023-08-11T07:24:39.830Z,99612.28
2023-08-11T07:27:06.724Z,99609.47
2023-08-11T07:29:33.882Z,99590.66
2023-08-11T07:32:00.708Z,99612.53
2023-08-11T07:34:27.977Z,99616.44
2023-08-11T07:36:54.602Z,99617.19
2023-08-11T07:39:23.868Z,99616.47
2023-08-11T07:41:52.412Z,99634.75
2023-08-11T07:44:19.174Z,99638.25
2023-08-11T07:46:46.060Z,99628.94
2023-08-11T07:49:13.928Z,99633.69
2023-08-11T07:51:42.537Z,99637.47
2023-08-11T07:54:10.020Z,99622.34
2023-08-11T07:56:37.141Z,99637.34
2023-08-11T07:59:03.993Z,99638.13
2023-08-11T08:01:31.068Z,99637.22
2023-08-11T08:03:58.003Z,99639.06
2023-08-11T08:06:25.317Z,99637.91
2023-08-11T08:08:52.158Z,99642.66
2023-08-11T08:11:19.371Z,99629.81
2023-08-11T08:13:46.379Z,99634.50
2023-08-11T08:16:13.327Z,99625.28
2023-08-11T08:18:40.138Z,99626.00
2023-08-11T08:21:07.066Z,99633.75
2023-08-11T08:23:33.779Z,99631.88
2023-08-11T08:26:00.702Z,99632.38
2023-08-11T08:28:27.665Z,99625.53
2023-08-11T08:30:54.465Z,99634.41
2023-08-11T08:33:21.359Z,99619.47
2023-08-11T08:35:48.361Z,99635.50
2023-08-11T08:38:15.314Z,99618.31
2023-08-11T08:40:42.678Z,99621.81
2023-08-11T08:43:10.069Z,99616.19
2023-08-11T08:45:38.771Z,99611.91
2023-08-11T08:48:11.835Z,99629.38
2023-08-11T08:50:39.626Z,99623.53
2023-08-11T08:53:06.511Z,99619.13
2023-08-11T08:55:33.535Z,99616.75
2023-08-11T08:58:02.093Z,99626.72
2023-08-11T09:00:29.478Z,99611.25
2023-08-11T09:02:59.187Z,99612.13
2023-08-11T09:05:27.940Z,99615.19
2023-08-11T09:07:54.607Z,99602.78
2023-08-11T09:10:22.115Z,99611.63
2023-08-11T09:12:49.747Z,99599.50
2023-08-11T09:15:16.377Z,99609.97
2023-08-11T09:17:43.746Z,99601.69
2023-08-11T09:20:13.725Z,99592.25
2023-08-11T09:22:41.557Z,99603.53
2023-08-11T09:25:08.967Z,99609.91
2023-08-11T09:27:35.737Z,99603.63
2023-08-11T09:30:02.424Z,99613.13
2023-08-11T09:32:32.588Z,99587.19
2023-08-11T09:35:03.860Z,99593.25
2023-08-11T09:37:31.654Z,99584.75
2023-08-11T09:40:03.037Z,99582.88
2023-08-11T09:42:29.817Z,99583.75
2023-08-11T09:44:56.637Z,99596.13
2023-08-11T09:47:23.543Z,99596.88
2023-08-11T09:49:50.366Z,99587.59
2023-08-11T09:52:18.596Z,99563.56
2023-08-11T09:54:46.450Z,99581.97
2023-08-11T09:57:14.741Z,99585.69
2023-08-11T09:59:42.345Z,99581.78
2023-08-11T10:02:16.403Z,99593.88
2023-08-11T10:04:49.948Z,99585.94
2023-08-11T10:07:18.836Z,99581.06
2023-08-11T10:09:48.538Z,99590.63
2023-08-11T10:12:15.676Z,99584.63
2023-08-11T10:14:42.358Z,99580.78
2023-08-11T10:17:13.061Z,99571.47
2023-08-11T10:19:40.312Z,99584.56
2023-08-11T10:22:07.602Z,99564.78
2023-08-11T10:24:38.587Z,99568.97
2023-08-11T10:27:09.101Z,99571.84
2023-08-11T10:29:39.191Z,99571.72
2023-08-11T10:32:06.563Z,99566.50
2023-08-11T10:34:33.488Z,99558.97
2023-08-11T10:37:00.387Z,99559.09
2023-08-11T10:39:27.548Z,99551.91
2023-08-11T10:41:57.410Z,99553.31
2023-08-11T10:44:28.841Z,99566.38
2023-08-11T10:47:00.099Z,99562.75
2023-08-11T10:49:42.648Z,99546.50
2023-08-11T10:52:10.579Z,99561.53
2023-08-11T10:54:37.495Z,99555.50
2023-08-11T10:57:05.624Z,99558.22
2023-08-11T10:59:34.202Z,99549.19
2023-08-11T11:02:03.684Z,99555.44
2023-08-11T11:04:32.916Z,99553.00
2023-08-11T11:07:05.913Z,99554.19
2023-08-11T11:09:32.532Z,99529.50
2023-08-11T11:11:59.490Z,99541.84
2023-08-11T11:14:28.421Z,99550.41
2023-08-11T11:16:59.981Z,99530.59
2023-08-11T11:19:27.558Z,99526.16
2023-08-11T11:21:54.236Z,99523.88
2023-08-11T11:24:21.071Z,99539.44
2023-08-11T11:26:47.913Z,99548.81
2023-08-11T11:29:15.347Z,99535.50
2023-08-11T11:31:42.114Z,99517.44
2023-08-11T11:34:09.125Z,99525.22
2023-08-11T11:36:36.157Z,99542.09
2023-08-11T11:39:06.125Z,99524.41
2023-08-11T11:41:33.114Z,99531.75
2023-08-11T11:44:00.303Z,99528.69
2023-08-11T11:46:27.314Z,99508.28
2023-08-11T11:48:55.297Z,99510.25
2023-08-11T11:51:26.689Z,99508.78
2023-08-11T11:53:55.922Z,99506.84
2023-08-11T11:56:22.970Z,99513.56
2023-08-11T11:58:50.584Z,99500.31
2023-08-11T12:01:28.967Z,99500.66
2023-08-11T12:04:01.386Z,99510.78
2023-08-11T12:06:29.928Z,99497.78
2023-08-11T12:09:10.267Z,99499.06
2023-08-11T12:11:39.497Z,99492.72
2023-08-11T12:14:07.202Z,99498.16
2023-08-11T12:16:34.062Z,99499.28
2023-08-11T12:19:01.979Z,99509.50
2023-08-11T12:21:29.627Z,99501.47
2023-08-11T12:23:56.933Z,99496.69
2023-08-11T12:26:26.507Z,99497.72
2023-08-11T12:28:53.147Z,99493.53
2023-08-11T12:31:20.118Z,99496.06
2023-08-11T12:33:47.556Z,99483.84
2023-08-11T12:36:15.018Z,99491.78
2023-08-11T12:38:42.008Z,99488.09
2023-08-11T12:41:08.909Z,99473.59
2023-08-11T12:43:36.033Z,99468.41
2023-08-11T12:46:02.756Z,99479.09
2023-08-11T12:48:29.551Z,99481.19
2023-08-11T12:50:56.330Z,99498.47
2023-08-11T12:53:23.050Z,99482.03
2023-08-11T12:55:49.681Z,99480.41
2023-08-11T12:58:16.289Z,99478.22
2023-08-11T13:00:42.897Z,99467.53
2023-08-11T13:03:09.728Z,99460.16
2023-08-11T13:05:36.893Z,99464.63
2023-08-11T13:08:03.691Z,99457.16
2023-08-11T13:10:30.377Z,99448.81
2023-08-11T13:12:57.192Z,99445.13
2023-08-11T13:15:24.678Z,99453.25
2023-08-11T13:17:51.431Z,99460.25
2023-08-11T13:20:18.156Z,99455.50
2023-08-11T13:22:44.919Z,99440.66
2023-08-11T13:25:12.416Z,99448.06
2023-08-11T13:27:39.338Z,99465.00
2023-08-11T13:30:09.563Z,99460.16
2023-08-11T13:32:36.585Z,99453.69
2023-08-11T13:35:03.826Z,99461.88
2023-08-11T13:37:30.413Z,99452.28
2023-08-11T13:39:58.754Z,99455.31
2023-08-11T13:42:25.375Z,99459.31
2023-08-11T13:44:52.285Z,99451.34
2023-08-11T13:47:34.358Z,99451.03
2023-08-11T13:50:00.995Z,99441.81
2023-08-11T13:52:27.621Z,99453.41
2023-08-11T13:55:02.100Z,99454.56
2023-08-11T13:57:29.307Z,99447.56
2023-08-11T13:59:57.880Z,99445.03
2023-08-11T14:02:26.562Z,99439.16
2023-08-11T14:04:54.448Z,99435.09
2023-08-11T14:07:30.438Z,99434.50
2023-08-11T14:09:59.186Z,99428.13
2023-08-11T14:12:25.853Z,99431.00
2023-08-11T14:14:52.598Z,99433.19
2023-08-11T14:17:19.290Z,99441.16
2023-08-11T14:19:45.960Z,99434.63
2023-08-11T14:22:12.577Z,99429.84
2023-08-11T14:24:39.705Z,99433.25
2023-08-11T14:27:07.093Z,99428.19
2023-08-11T14:29:33.831Z,99433.53
2023-08-11T14:32:18.370Z,99429.34
2023-08-11T14:34:47.208Z,99434.13
2023-08-11T14:37:16.811Z,99433.03
2023-08-11T14:39:44.302Z,99426.88
2023-08-11T14:42:11.251Z,99426.75
2023-08-11T14:44:38.149Z,99407.91
2023-08-11T14:47:06.538Z,99432.09
2023-08-11T14:49:34.370Z,99416.47
2023-08-11T14:52:01.060Z,99413.97
2023-08-11T14:54:28.116Z,99412.69
2023-08-11T14:56:55.653Z,99393.88
2023-08-11T14:59:22.370Z,99405.56
2023-08-11T15:01:49.229Z,99420.28
2023-08-11T15:04:15.937Z,99418.91
2023-08-11T15:06:42.986Z,99415.53
2023-08-11T15:09:09.823Z,99408.72
2023-08-11T15:11:36.825Z,99401.66
2023-08-11T15:14:03.777Z,99399.78
2023-08-11T15:16:30.975Z,99398.72
2023-08-11T15:18:57.999Z,99394.56
2023-08-11T15:21:24.977Z,99396.88
2023-08-11T15:23:51.665Z,99385.47
2023-08-11T15:26:19.565Z,99384.91
2023-08-11T15:28:46.455Z,99371.63
2023-08-11T15:31:13.915Z,99391.94
2023-08-11T15:33:40.696Z,99384.97
2023-08-11T15:36:07.513Z,99380.31
2023-08-11T15:38:34.319Z,99379.94
2023-08-11T15:41:03.371Z,99380.25
2023-08-11T15:43:31.830Z,99380.44
2023-08-11T15:45:58.715Z,99384.06
2023-08-11T15:48:25.632Z,99365.16
2023-08-11T15:50:52.362Z,99373.81
2023-08-11T15:53:19.133Z,99370.38
2023-08-11T15:55:46.023Z,99357.75
2023-08-11T15:58:12.926Z,99363.53
2023-08-11T16:00:40.836Z,99352.19
2023-08-11T16:03:07.690Z,99344.00
2023-08-11T16:05:34.557Z,99356.31
2023-08-11T16:08:01.470Z,99355.25
2023-08-11T16:10:30.328Z,99346.53
2023-08-11T16:12:57.077Z,99347.22
2023-08-11T16:15:23.988Z,99351.56
2023-08-11T16:17:54.668Z,99355.84
2023-08-11T16:20:22.154Z,99351.78
2023-08-11T16:22:49.072Z,99343.28
2023-08-11T16:25:16.057Z,99348.13
2023-08-11T16:27:42.811Z,99356.50
2023-08-11T16:30:11.522Z,99350.63
2023-08-11T16:32:38.774Z,99349.97
2023-08-11T16:35:06.274Z,99371.13
2023-08-11T16:37:33.473Z,99361.47
2023-08-11T16:40:00.395Z,99362.13
2023-08-11T16:42:27.158Z,99370.44
2023-08-11T16:44:54.114Z,99363.97
2023-08-11T16:47:20.952Z,99365.53
2023-08-11T16:49:47.680Z,99361.16
2023-08-11T16:52:14.554Z,99360.66
2023-08-11T16:54:41.675Z,99360.16
2023-08-11T16:57:08.452Z,99359.00
2023-08-11T16:59:35.118Z,99352.28
2023-08-11T17:02:01.840Z,99355.09
2023-08-11T17:04:28.679Z,99352.63
2023-08-11T17:06:55.629Z,99358.72
2023-08-11T17:09:22.320Z,99363.34
2023-08-11T17:11:49.493Z,99355.75
2023-08-11T17:14:17.179Z,99353.59
2023-08-11T17:16:44.069Z,99363.88
2023-08-11T17:19:10.880Z,99357.63
2023-08-11T17:21:37.602Z,99353.81
2023-08-11T17:24:05.043Z,99349.25
2023-08-11T17:26:32.295Z,99342.94
2023-08-11T17:28:59.003Z,99334.00
2023-08-11T17:31:26.943Z,99325.34
2023-08-11T17:33:53.833Z,99306.06
2023-08-11T17:36:26.509Z,99313.97
2023-08-11T17:38:57.866Z,99296.03
2023-08-11T17:41:28.056Z,99286.63
2023-08-11T17:43:54.970Z,99290.50
2023-08-11T17:46:21.963Z,99277.19
2023-08-11T17:48:50.321Z,99286.03
2023-08-11T17:51:17.015Z,99303.25
2023-08-11T17:53:47.468Z,99297.56
2023-08-11T17:56:19.345Z,99294.16
2023-08-11T17:58:46.903Z,99287.91
2023-08-11T18:01:15.267Z,99280.22
2023-08-11T18:03:42.241Z,99272.69
2023-08-11T18:06:09.147Z,99264.78
2023-08-11T18:08:38.412Z,99275.44
2023-08-11T18:11:07.556Z,99254.09
2023-08-11T18:13:34.360Z,99259.28
2023-08-11T18:16:01.319Z,99268.47
2023-08-11T18:18:28.063Z,99237.78
2023-08-11T18:20:56.131Z,99247.00
2023-08-11T18:23:26.492Z,99228.03
2023-08-11T18:25:54.510Z,99177.84
2023-08-11T18:28:24.398Z,99105.50
2023-08-11T18:30:52.652Z,99104.88
2023-08-11T18:33:19.349Z,99107.63
2023-08-11T18:35:47.329Z,99095.91
2023-08-11T18:38:14.239Z,99078.72
2023-08-11T18:40:41.241Z,98995.16
2023-08-11T18:43:07.870Z,98840.78
2023-08-11T18:45:34.833Z,98726.25
2023-08-11T18:48:02.797Z,98669.47
2023-08-11T18:50:29.621Z,98635.25
2023-08-11T18:52:56.295Z,98631.72
2023-08-11T18:55:23.024Z,98623.13
2023-08-11T18:57:49.870Z,98616.00
2023-08-11T19:00:17.037Z,98600.94
2023-08-11T19:02:43.873Z,98580.03
2023-08-11T19:05:10.773Z,98558.50
2023-08-11T19:07:37.463Z,98559.53
2023-08-11T19:10:06.217Z,98543.31
2023-08-11T19:12:33.040Z,98522.50
2023-08-11T19:14:59.654Z,98531.78
2023-08-11T19:17:26.346Z,98530.59
2023-08-11T19:19:54.665Z,98509.41
2023-08-11T19:22:24.409Z,98492.66
2023-08-11T19:24:51.255Z,98490.13
2023-08-11T19:27:18.975Z,98485.25
2023-08-11T19:29:45.698Z,98452.81
2023-08-11T19:32:12.730Z,98444.97
2023-08-11T19:34:40.167Z,98436.75
2023-08-11T19:37:06.783Z,98446.66
2023-08-11T19:39:33.444Z,98442.91
2023-08-11T19:42:00.309Z,98422.84
2023-08-11T19:44:27.018Z,98381.44
2023-08-11T19:46:56.719Z,98388.44
2023-08-11T19:49:25.117Z,98368.34
2023-08-11T19:51:52.041Z,98369.19
2023-08-11T19:54:18.886Z,98356.47
2023-08-11T19:56:47.436Z,98347.28
2023-08-11T19:59:14.418Z,98343.91
2023-08-11T20:01:41.114Z,98333.91
2023-08-11T20:04:08.135Z,98315.13
2023-08-11T20:06:35.020Z,98330.84
2023-08-11T20:09:02.115Z,98325.28
2023-08-11T20:11:29.547Z,98330.41
2023-08-11T20:13:56.447Z,98338.63
2023-08-11T20:16:23.482Z,98322.78
2023-08-11T20:18:50.188Z,98316.53
2023-08-11T20:21:17.011Z,98318.22
2023-08-11T20:23:43.953Z,98286.28
2023-08-11T20:26:10.564Z,98286.16
2023-08-11T20:28:37.429Z,98298.88
2023-08-11T20:31:04.340Z,98286.59
2023-08-11T20:33:31.093Z,98277.50
2023-08-11T20:35:59.871Z,98273.81
2023-08-11T20:38:27.494Z,98277.94
2023-08-11T20:40:58.298Z,98287.38
2023-08-11T20:43:25.222Z,98274.81
2023-08-11T20:45:52.270Z,98259.50
2023-08-11T20:48:22.951Z,98253.28
2023-08-11T20:50:53.447Z,98259.91
2023-08-11T20:53:23.180Z,98241.03
2023-08-11T20:55:49.870Z,98239.06
2023-08-11T20:58:17.490Z,98215.88
2023-08-11T21:00:44.172Z,98215.97
2023-08-11T21:03:10.941Z,98218.59
2023-08-11T21:05:42.375Z,98212.44
2023-08-11T21:08:12.424Z,98225.66
2023-08-11T21:10:46.140Z,98219.53
2023-08-11T21:13:13.170Z,98213.72
2023-08-11T21:15:40.055Z,98184.84
2023-08-11T21:18:11.004Z,98178.44
2023-08-11T21:20:38.445Z,98163.03
2023-08-11T21:23:05.856Z,98164.25
2023-08-11T21:25:33.267Z,98156.03
2023-08-11T21:28:00.311Z,98146.16
2023-08-11T21:30:27.053Z,98130.59
2023-08-11T21:32:53.842Z,98122.72
2023-08-11T21:35:22.477Z,98118.38
2023-08-11T21:37:50.060Z,98113.69
2023-08-11T21:40:17.463Z,98095.91
2023-08-11T21:42:47.137Z,98093.81
2023-08-11T21:45:14.020Z,98098.81
2023-08-11T21:47:46.126Z,98110.31
2023-08-11T21:50:13.362Z,98102.63
2023-08-11T21:52:41.418Z,98095.81
2023-08-11T21:55:09.185Z,98101.78
2023-08-11T21:57:35.986Z,98099.44
2023-08-11T22:00:04.368Z,98100.28
2023-08-11T22:02:31.100Z,98091.16
2023-08-11T22:05:00.784Z,98083.00
2023-08-11T22:07:27.443Z,98072.97
2023-08-11T22:09:54.207Z,98039.03
2023-08-11T22:12:21.413Z,98031.16
2023-08-11T22:14:48.072Z,98027.91
2023-08-11T22:17:18.665Z,98003.19
2023-08-11T22:19:48.172Z,98011.91
2023-08-11T22:22:15.555Z,97992.16
2023-08-11T22:24:44.779Z,97972.78
2023-08-11T22:27:12.496Z,97960.00
2023-08-11T22:29:39.863Z,97966.19
2023-08-11T22:32:07.950Z,97950.19
2023-08-11T22:34:34.576Z,97940.75
2023-08-11T22:37:01.813Z,97933.28
2023-08-11T22:39:30.385Z,97933.31
2023-08-11T22:42:00.079Z,97936.25
2023-08-11T22:44:26.846Z,97937.66
2023-08-11T22:46:53.628Z,97937.47
2023-08-11T22:49:20.314Z,97943.25
2023-08-11T22:51:47.204Z,97925.16
2023-08-11T22:54:16.078Z,97916.97
2023-08-11T22:56:43.248Z,97914.97
2023-08-11T22:59:12.660Z,97904.69
2023-08-11T23:01:40.790Z,97893.19
2023-08-11T23:04:08.598Z,97883.97
2023-08-11T23:06:35.335Z,97881.72
2023-08-11T23:09:01.978Z,97880.88
2023-08-11T23:11:29.587Z,97868.59
2023-08-11T23:13:56.217Z,97861.56
2023-08-11T23:16:23.584Z,97869.34
2023-08-11T23:18:50.553Z,97872.63
2023-08-11T23:21:17.212Z,97875.72
2023-08-11T23:23:44.692Z,97878.63
2023-08-11T23:26:11.652Z,97883.81
2023-08-11T23:28:39.091Z,97883.34
2023-08-11T23:31:07.173Z,97884.22
2023-08-11T23:33:35.842Z,97873.94
2023-08-11T23:36:03.562Z,97865.47
2023-08-11T23:38:31.448Z,97862.19
2023-08-11T23:40:58.212Z,97873.09
2023-08-11T23:43:24.949Z,97881.72
2023-08-11T23:45:51.682Z,97871.06
2023-08-11T23:48:22.520Z,97875.38
2023-08-11T23:50:50.436Z,97879.28
2023-08-11T23:53:17.861Z,97875.19
2023-08-11T23:55:45.552Z,97871.91
2023-08-11T23:58:12.774Z,97867.59
